sensor_id;sensor_type;location;lat;lon;timestamp;pressure;altitude;pressure_sealevel;temperature;humidity
75438;BME280;64015;49.392;15.582;2023-05-07T00:00:39;95851.81;;;8.82;94.66
75438;BME280;64015;49.392;15.582;2023-05-07T00:03:19;95848.69;;;8.85;94.85
75438;BME280;64015;49.392;15.582;2023-05-07T00:05:45;95839.69;;;8.76;94.96
75438;BME280;64015;49.392;15.582;2023-05-07T00:08:11;95848.09;;;8.73;95.85
75438;BME280;64015;49.392;15.582;2023-05-07T00:10:37;95849.34;;;8.66;95.64
75438;BME280;64015;49.392;15.582;2023-05-07T00:13:03;95853.63;;;8.77;96.61
75438;BME280;64015;49.392;15.582;2023-05-07T00:15:28;95855.44;;;8.71;95.85
75438;BME280;64015;49.392;15.582;2023-05-07T00:17:55;95854.28;;;8.57;96.80
75438;BME280;64015;49.392;15.582;2023-05-07T00:20:21;95851.09;;;8.50;97.64
75438;BME280;64015;49.392;15.582;2023-05-07T00:22:47;95855.22;;;8.41;97.58
75438;BME280;64015;49.392;15.582;2023-05-07T00:25:12;95856.19;;;8.35;97.77
75438;BME280;64015;49.392;15.582;2023-05-07T00:27:38;95857.16;;;8.23;98.65
75438;BME280;64015;49.392;15.582;2023-05-07T00:30:04;95863.34;;;8.12;99.17
75438;BME280;64015;49.392;15.582;2023-05-07T00:32:30;95855.13;;;8.04;99.69
75438;BME280;64015;49.392;15.582;2023-05-07T00:34:56;95855.72;;;8.11;100.00
75438;BME280;64015;49.392;15.582;2023-05-07T00:37:21;95853.28;;;8.04;100.00
75438;BME280;64015;49.392;15.582;2023-05-07T00:39:47;95855.03;;;7.94;100.00
75438;BME280;64015;49.392;15.582;2023-05-07T00:42:12;95855.63;;;8.01;100.00
75438;BME280;64015;49.392;15.582;2023-05-07T00:44:38;95853.28;;;8.04;100.00
75438;BME280;64015;49.392;15.582;2023-05-07T00:47:04;95848.44;;;7.91;100.00
75438;BME280;64015;49.392;15.582;2023-05-07T00:49:38;95853.69;;;7.91;100.00
75438;BME280;64015;49.392;15.582;2023-05-07T00:52:06;95851.38;;;7.95;100.00
75438;BME280;64015;49.392;15.582;2023-05-07T00:54:33;95849.34;;;7.80;100.00
75438;BME280;64015;49.392;15.582;2023-05-07T00:57:00;95855.66;;;7.79;100.00
75438;BME280;64015;49.392;15.582;2023-05-07T00:59:27;95858.00;;;7.75;100.00
75438;BME280;64015;49.392;15.582;2023-05-07T01:01:52;95860.84;;;7.96;100.00
75438;BME280;64015;49.392;15.582;2023-05-07T01:04:18;95858.28;;;7.79;100.00
75438;BME280;64015;49.392;15.582;2023-05-07T01:06:45;95855.91;;;7.77;100.00
75438;BME280;64015;49.392;15.582;2023-05-07T01:09:11;95858.03;;;7.80;100.00
75438;BME280;64015;49.392;15.582;2023-05-07T01:11:37;95860.72;;;7.85;100.00
75438;BME280;64015;49.392;15.582;2023-05-07T01:14:04;95859.22;;;7.68;100.00
75438;BME280;64015;49.392;15.582;2023-05-07T01:16:30;95853.41;;;7.66;100.00
75438;BME280;64015;49.392;15.582;2023-05-07T01:18:56;95855.13;;;7.77;100.00
75438;BME280;64015;49.392;15.582;2023-05-07T01:21:25;95855.50;;;7.64;100.00
75438;BME280;64015;49.392;15.582;2023-05-07T01:23:53;95858.59;;;7.61;100.00
75438;BME280;64015;49.392;15.582;2023-05-07T01:26:19;95856.50;;;7.58;100.00
75438;BME280;64015;49.392;15.582;2023-05-07T01:28:46;95858.44;;;7.45;100.00
75438;BME280;64015;49.392;15.582;2023-05-07T01:31:12;95859.03;;;7.53;100.00
75438;BME280;64015;49.392;15.582;2023-05-07T01:33:40;95855.03;;;7.45;100.00
75438;BME280;64015;49.392;15.582;2023-05-07T01:36:06;95866.31;;;7.45;100.00
75438;BME280;64015;49.392;15.582;2023-05-07T01:38:35;95863.22;;;7.48;100.00
75438;BME280;64015;49.392;15.582;2023-05-07T01:41:02;95859.22;;;7.46;100.00
75438;BME280;64015;49.392;15.582;2023-05-07T01:43:29;95866.75;;;7.37;100.00
75438;BME280;64015;49.392;15.582;2023-05-07T01:45:57;95870.22;;;7.43;100.00
75438;BME280;64015;49.392;15.582;2023-05-07T01:48:24;95885.25;;;7.47;100.00
75438;BME280;64015;49.392;15.582;2023-05-07T01:50:51;95877.56;;;7.41;100.00
75438;BME280;64015;49.392;15.582;2023-05-07T01:53:17;95881.56;;;7.27;100.00
75438;BME280;64015;49.392;15.582;2023-05-07T01:55:43;95878.50;;;7.35;100.00
75438;BME280;64015;49.392;15.582;2023-05-07T01:58:08;95886.16;;;7.36;100.00
75438;BME280;64015;49.392;15.582;2023-05-07T02:00:34;95884.56;;;7.35;100.00
75438;BME280;64015;49.392;15.582;2023-05-07T02:03:00;95883.09;;;7.44;100.00
75438;BME280;64015;49.392;15.582;2023-05-07T02:05:25;95881.56;;;7.48;100.00
75438;BME280;64015;49.392;15.582;2023-05-07T02:07:51;95889.31;;;7.38;100.00
75438;BME280;64015;49.392;15.582;2023-05-07T02:10:17;95892.75;;;7.39;100.00
75438;BME280;64015;49.392;15.582;2023-05-07T02:12:43;95887.25;;;7.40;100.00
75438;BME280;64015;49.392;15.582;2023-05-07T02:15:09;95882.84;;;7.46;100.00
75438;BME280;64015;49.392;15.582;2023-05-07T02:17:39;95889.94;;;7.45;100.00
75438;BME280;64015;49.392;15.582;2023-05-07T02:20:22;95889.38;;;7.43;100.00
75438;BME280;64015;49.392;15.582;2023-05-07T02:22:48;95894.56;;;7.38;100.00
75438;BME280;64015;49.392;15.582;2023-05-07T02:25:14;95882.34;;;7.27;100.00
75438;BME280;64015;49.392;15.582;2023-05-07T02:27:39;95878.22;;;7.31;100.00
75438;BME280;64015;49.392;15.582;2023-05-07T02:30:05;95883.34;;;7.21;100.00
75438;BME280;64015;49.392;15.582;2023-05-07T02:32:31;95887.03;;;7.25;100.00
75438;BME280;64015;49.392;15.582;2023-05-07T02:34:57;95886.84;;;7.10;100.00
75438;BME280;64015;49.392;15.582;2023-05-07T02:37:22;95885.75;;;7.06;100.00
75438;BME280;64015;49.392;15.582;2023-05-07T02:39:48;95883.19;;;7.11;100.00
75438;BME280;64015;49.392;15.582;2023-05-07T02:42:14;95881.00;;;7.03;100.00
75438;BME280;64015;49.392;15.582;2023-05-07T02:44:39;95884.78;;;7.12;100.00
75438;BME280;64015;49.392;15.582;2023-05-07T02:47:05;95883.19;;;7.11;100.00
75438;BME280;64015;49.392;15.582;2023-05-07T02:49:33;95877.19;;;6.94;100.00
75438;BME280;64015;49.392;15.582;2023-05-07T02:51:59;95877.81;;;7.01;100.00
75438;BME280;64015;49.392;15.582;2023-05-07T02:54:24;95887.81;;;7.04;100.00
75438;BME280;64015;49.392;15.582;2023-05-07T02:56:50;95878.25;;;7.15;100.00
75438;BME280;64015;49.392;15.582;2023-05-07T02:59:16;95884.78;;;7.34;100.00
75438;BME280;64015;49.392;15.582;2023-05-07T03:01:42;95882.53;;;7.42;100.00
75438;BME280;64015;49.392;15.582;2023-05-07T03:04:09;95891.53;;;7.46;100.00
75438;BME280;64015;49.392;15.582;2023-05-07T03:06:36;95880.75;;;7.70;100.00
75438;BME280;64015;49.392;15.582;2023-05-07T03:09:02;95878.19;;;7.75;100.00
75438;BME280;64015;49.392;15.582;2023-05-07T03:11:28;95889.78;;;7.79;100.00
75438;BME280;64015;49.392;15.582;2023-05-07T03:13:54;95878.34;;;7.90;100.00
75438;BME280;64015;49.392;15.582;2023-05-07T03:16:20;95885.75;;;7.93;100.00
75438;BME280;64015;49.392;15.582;2023-05-07T03:18:46;95873.63;;;7.87;100.00
75438;BME280;64015;49.392;15.582;2023-05-07T03:21:11;95881.28;;;7.94;100.00
75438;BME280;64015;49.392;15.582;2023-05-07T03:23:37;95884.38;;;8.12;100.00
75438;BME280;64015;49.392;15.582;2023-05-07T03:26:03;95887.47;;;8.09;100.00
75438;BME280;64015;49.392;15.582;2023-05-07T03:28:28;95887.44;;;8.04;100.00
75438;BME280;64015;49.392;15.582;2023-05-07T03:30:54;95890.59;;;8.06;100.00
75438;BME280;64015;49.392;15.582;2023-05-07T03:33:20;95890.00;;;7.99;100.00
75438;BME280;64015;49.392;15.582;2023-05-07T03:35:45;95882.09;;;7.94;100.00
75438;BME280;64015;49.392;15.582;2023-05-07T03:38:11;95886.09;;;8.02;100.00
75438;BME280;64015;49.392;15.582;2023-05-07T03:40:37;95891.09;;;8.03;100.00
75438;BME280;64015;49.392;15.582;2023-05-07T03:43:02;95891.00;;;7.93;100.00
75438;BME280;64015;49.392;15.582;2023-05-07T03:45:28;95886.44;;;7.83;100.00
75438;BME280;64015;49.392;15.582;2023-05-07T03:47:54;95897.19;;;7.82;100.00
75438;BME280;64015;49.392;15.582;2023-05-07T03:50:20;95886.31;;;7.73;100.00
75438;BME280;64015;49.392;15.582;2023-05-07T03:52:45;95890.75;;;7.95;100.00
75438;BME280;64015;49.392;15.582;2023-05-07T03:55:11;95899.47;;;8.00;100.00
75438;BME280;64015;49.392;15.582;2023-05-07T03:57:37;95900.03;;;8.02;100.00
75438;BME280;64015;49.392;15.582;2023-05-07T04:00:03;95906.31;;;8.01;100.00
75438;BME280;64015;49.392;15.582;2023-05-07T04:02:29;95911.03;;;7.99;100.00
75438;BME280;64015;49.392;15.582;2023-05-07T04:04:55;95908.63;;;7.98;100.00
75438;BME280;64015;49.392;15.582;2023-05-07T04:07:21;95916.16;;;7.89;100.00
75438;BME280;64015;49.392;15.582;2023-05-07T04:09:47;95904.38;;;7.92;100.00
75438;BME280;64015;49.392;15.582;2023-05-07T04:12:13;95912.50;;;7.90;100.00
75438;BME280;64015;49.392;15.582;2023-05-07T04:14:38;95920.34;;;8.12;100.00
75438;BME280;64015;49.392;15.582;2023-05-07T04:17:04;95906.06;;;8.03;100.00
75438;BME280;64015;49.392;15.582;2023-05-07T04:19:33;95909.53;;;8.08;100.00
75438;BME280;64015;49.392;15.582;2023-05-07T04:21:58;95911.91;;;8.10;100.00
75438;BME280;64015;49.392;15.582;2023-05-07T04:24:24;95911.81;;;8.27;100.00
75438;BME280;64015;49.392;15.582;2023-05-07T04:26:50;95926.31;;;8.29;100.00
75438;BME280;64015;49.392;15.582;2023-05-07T04:29:16;95922.63;;;8.30;100.00
75438;BME280;64015;49.392;15.582;2023-05-07T04:31:42;95924.06;;;8.38;100.00
75438;BME280;64015;49.392;15.582;2023-05-07T04:34:12;95920.91;;;8.14;100.00
75438;BME280;64015;49.392;15.582;2023-05-07T04:36:38;95923.91;;;8.28;100.00
75438;BME280;64015;49.392;15.582;2023-05-07T04:39:04;95933.84;;;8.42;100.00
75438;BME280;64015;49.392;15.582;2023-05-07T04:41:29;95920.97;;;8.46;100.00
75438;BME280;64015;49.392;15.582;2023-05-07T04:43:55;95925.53;;;8.55;100.00
75438;BME280;64015;49.392;15.582;2023-05-07T04:46:22;95923.75;;;8.61;100.00
75438;BME280;64015;49.392;15.582;2023-05-07T04:48:49;95929.06;;;8.71;100.00
75438;BME280;64015;49.392;15.582;2023-05-07T04:51:14;95932.53;;;8.77;100.00
75438;BME280;64015;49.392;15.582;2023-05-07T04:53:40;95938.09;;;8.80;100.00
75438;BME280;64015;49.392;15.582;2023-05-07T04:56:06;95928.63;;;8.79;100.00
75438;BME280;64015;49.392;15.582;2023-05-07T04:58:32;95930.78;;;8.55;100.00
75438;BME280;64015;49.392;15.582;2023-05-07T05:00:58;95938.91;;;8.54;100.00
75438;BME280;64015;49.392;15.582;2023-05-07T05:03:28;95934.25;;;8.61;100.00
75438;BME280;64015;49.392;15.582;2023-05-07T05:05:55;95931.78;;;8.49;100.00
75438;BME280;64015;49.392;15.582;2023-05-07T05:08:22;95935.16;;;8.45;100.00
75438;BME280;64015;49.392;15.582;2023-05-07T05:10:51;95937.44;;;8.36;100.00
75438;BME280;64015;49.392;15.582;2023-05-07T05:13:17;95955.69;;;8.48;100.00
75438;BME280;64015;49.392;15.582;2023-05-07T05:15:42;95950.47;;;8.53;100.00
75438;BME280;64015;49.392;15.582;2023-05-07T05:18:08;95952.59;;;8.56;100.00
75438;BME280;64015;49.392;15.582;2023-05-07T05:20:34;95962.84;;;8.52;100.00
75438;BME280;64015;49.392;15.582;2023-05-07T05:23:00;95964.00;;;8.67;100.00
75438;BME280;64015;49.392;15.582;2023-05-07T05:25:25;95954.59;;;8.71;100.00
75438;BME280;64015;49.392;15.582;2023-05-07T05:27:51;95960.09;;;8.69;99.21
75438;BME280;64015;49.392;15.582;2023-05-07T05:30:17;95951.72;;;8.45;100.00
75438;BME280;64015;49.392;15.582;2023-05-07T05:32:42;95949.25;;;8.34;100.00
75438;BME280;64015;49.392;15.582;2023-05-07T05:35:08;95955.72;;;8.53;100.00
75438;BME280;64015;49.392;15.582;2023-05-07T05:37:34;95952.66;;;8.61;100.00
75438;BME280;64015;49.392;15.582;2023-05-07T05:39:59;95951.09;;;8.65;99.05
75438;BME280;64015;49.392;15.582;2023-05-07T05:42:26;95956.94;;;8.72;99.08
75438;BME280;64015;49.392;15.582;2023-05-07T05:44:51;95958.22;;;8.96;97.58
75438;BME280;64015;49.392;15.582;2023-05-07T05:47:17;95957.28;;;9.13;96.56
75438;BME280;64015;49.392;15.582;2023-05-07T05:49:43;95957.13;;;9.29;95.25
75438;BME280;64015;49.392;15.582;2023-05-07T05:52:11;95952.16;;;9.38;93.77
75438;BME280;64015;49.392;15.582;2023-05-07T05:54:37;95962.81;;;9.53;92.57
75438;BME280;64015;49.392;15.582;2023-05-07T05:57:38;95948.91;;;9.63;93.08
75438;BME280;64015;49.392;15.582;2023-05-07T06:03:07;95958.38;;;10.31;89.39
75438;BME280;64015;49.392;15.582;2023-05-07T06:05:43;95961.06;;;10.46;87.17
75438;BME280;64015;49.392;15.582;2023-05-07T06:08:09;95971.06;;;10.39;87.89
75438;BME280;64015;49.392;15.582;2023-05-07T06:10:36;95966.19;;;10.11;89.28
75438;BME280;64015;49.392;15.582;2023-05-07T06:13:02;95959.16;;;10.22;87.41
75438;BME280;64015;49.392;15.582;2023-05-07T06:15:28;95956.78;;;10.30;88.22
75438;BME280;64015;49.392;15.582;2023-05-07T06:18:03;95961.59;;;10.43;88.06
75438;BME280;64015;49.392;15.582;2023-05-07T06:20:29;95970.28;;;10.44;89.01
75438;BME280;64015;49.392;15.582;2023-05-07T06:22:54;95975.81;;;10.42;89.38
75438;BME280;64015;49.392;15.582;2023-05-07T06:26:00;95991.38;;;10.49;88.38
75438;BME280;64015;49.392;15.582;2023-05-07T06:28:31;95991.25;;;10.08;89.19
75438;BME280;64015;49.392;15.582;2023-05-07T06:31:22;95996.28;;;10.15;89.43
75438;BME280;64015;49.392;15.582;2023-05-07T06:33:49;96003.34;;;9.99;90.15
75438;BME280;64015;49.392;15.582;2023-05-07T06:36:17;96000.47;;;10.11;89.52
75438;BME280;64015;49.392;15.582;2023-05-07T06:38:49;96003.47;;;10.30;88.97
75438;BME280;64015;49.392;15.582;2023-05-07T06:41:15;95994.75;;;10.29;88.43
75438;BME280;64015;49.392;15.582;2023-05-07T06:43:41;95994.88;;;10.75;87.42
75438;BME280;64015;49.392;15.582;2023-05-07T06:46:07;96021.28;;;11.05;84.64
75438;BME280;64015;49.392;15.582;2023-05-07T06:48:39;96014.69;;;11.13;84.72
75438;BME280;64015;49.392;15.582;2023-05-07T06:51:04;96000.97;;;10.91;84.76
75438;BME280;64015;49.392;15.582;2023-05-07T06:53:30;96009.66;;;11.21;84.23
75438;BME280;64015;49.392;15.582;2023-05-07T06:55:56;96006.22;;;11.36;84.64
75438;BME280;64015;49.392;15.582;2023-05-07T06:58:22;96014.94;;;11.52;82.86
75438;BME280;64015;49.392;15.582;2023-05-07T07:00:48;96021.78;;;11.73;82.65
75438;BME280;64015;49.392;15.582;2023-05-07T07:03:14;96008.03;;;11.71;80.65
75438;BME280;64015;49.392;15.582;2023-05-07T07:12:57;96033.13;;;11.74;79.08
75438;BME280;64015;49.392;15.582;2023-05-07T07:15:34;96035.28;;;11.56;80.62
75438;BME280;64015;49.392;15.582;2023-05-07T07:18:06;96036.31;;;11.71;79.74
75438;BME280;64015;49.392;15.582;2023-05-07T07:20:32;96038.66;;;12.03;78.56
75438;BME280;64015;49.392;15.582;2023-05-07T07:23:00;96033.81;;;12.20;76.85
75438;BME280;64015;49.392;15.582;2023-05-07T07:25:26;96042.59;;;12.10;77.14
75438;BME280;64015;49.392;15.582;2023-05-07T07:27:52;96037.84;;;11.97;77.30
75438;BME280;64015;49.392;15.582;2023-05-07T07:30:18;96041.03;;;11.99;78.22
75438;BME280;64015;49.392;15.582;2023-05-07T07:32:44;96037.78;;;12.17;77.96
75438;BME280;64015;49.392;15.582;2023-05-07T07:35:10;96043.81;;;12.33;77.36
75438;BME280;64015;49.392;15.582;2023-05-07T07:37:35;96044.78;;;12.52;76.53
75438;BME280;64015;49.392;15.582;2023-05-07T07:40:02;96046.53;;;12.18;75.74
75438;BME280;64015;49.392;15.582;2023-05-07T07:42:28;96045.00;;;12.02;75.72
75438;BME280;64015;49.392;15.582;2023-05-07T07:45:07;96062.19;;;11.74;77.89
75438;BME280;64015;49.392;15.582;2023-05-07T07:47:33;96050.75;;;12.19;75.80
75438;BME280;64015;49.392;15.582;2023-05-07T07:49:59;96052.75;;;12.47;76.43
75438;BME280;64015;49.392;15.582;2023-05-07T07:52:25;96041.91;;;12.44;73.99
75438;BME280;64015;49.392;15.582;2023-05-07T07:54:51;96056.78;;;12.40;74.28
75438;BME280;64015;49.392;15.582;2023-05-07T07:57:22;96040.06;;;12.44;73.78
75438;BME280;64015;49.392;15.582;2023-05-07T07:59:49;96045.25;;;12.69;74.49
75438;BME280;64015;49.392;15.582;2023-05-07T08:02:15;96050.47;;;12.80;73.01
75438;BME280;64015;49.392;15.582;2023-05-07T08:04:41;96046.59;;;12.67;73.30
75438;BME280;64015;49.392;15.582;2023-05-07T08:07:11;96046.00;;;12.75;72.34
75438;BME280;64015;49.392;15.582;2023-05-07T08:09:37;96042.22;;;12.37;73.83
75438;BME280;64015;49.392;15.582;2023-05-07T08:12:12;96034.97;;;12.58;74.35
75438;BME280;64015;49.392;15.582;2023-05-07T08:14:38;96047.00;;;12.84;73.74
75438;BME280;64015;49.392;15.582;2023-05-07T08:17:04;96038.22;;;12.89;72.17
75438;BME280;64015;49.392;15.582;2023-05-07T08:19:33;96033.72;;;12.89;71.79
75438;BME280;64015;49.392;15.582;2023-05-07T08:21:59;96043.41;;;13.14;70.34
75438;BME280;64015;49.392;15.582;2023-05-07T08:24:31;96039.94;;;13.48;69.37
75438;BME280;64015;49.392;15.582;2023-05-07T08:26:56;96040.47;;;13.78;68.08
75438;BME280;64015;49.392;15.582;2023-05-07T08:29:22;96043.75;;;14.18;66.23
75438;BME280;64015;49.392;15.582;2023-05-07T08:31:48;96054.84;;;14.49;67.58
75438;BME280;64015;49.392;15.582;2023-05-07T08:34:14;96048.91;;;14.94;65.98
75438;BME280;64015;49.392;15.582;2023-05-07T08:36:40;96046.50;;;14.79;65.83
75438;BME280;64015;49.392;15.582;2023-05-07T08:39:07;96035.34;;;14.77;66.71
75438;BME280;64015;49.392;15.582;2023-05-07T08:41:33;96046.91;;;15.05;65.03
75438;BME280;64015;49.392;15.582;2023-05-07T08:44:03;96040.88;;;15.18;61.97
75438;BME280;64015;49.392;15.582;2023-05-07T08:46:32;96039.72;;;15.06;61.48
75438;BME280;64015;49.392;15.582;2023-05-07T08:48:58;96039.50;;;15.21;64.62
75438;BME280;64015;49.392;15.582;2023-05-07T08:51:23;96045.91;;;14.64;63.86
75438;BME280;64015;49.392;15.582;2023-05-07T08:53:49;96042.50;;;14.58;64.77
75438;BME280;64015;49.392;15.582;2023-05-07T08:56:16;96056.16;;;14.70;62.51
75438;BME280;64015;49.392;15.582;2023-05-07T08:58:43;96047.13;;;15.09;61.96
75438;BME280;64015;49.392;15.582;2023-05-07T09:01:13;96049.00;;;15.59;62.85
75438;BME280;64015;49.392;15.582;2023-05-07T09:03:40;96057.53;;;15.75;58.75
75438;BME280;64015;49.392;15.582;2023-05-07T09:06:26;96047.50;;;15.86;59.32
75438;BME280;64015;49.392;15.582;2023-05-07T09:08:53;96057.09;;;16.28;57.09
75438;BME280;64015;49.392;15.582;2023-05-07T09:15:00;96061.16;;;16.12;55.25
75438;BME280;64015;49.392;15.582;2023-05-07T09:17:29;96051.69;;;16.19;55.90
75438;BME280;64015;49.392;15.582;2023-05-07T09:19:54;96065.44;;;16.90;54.74
75438;BME280;64015;49.392;15.582;2023-05-07T09:22:20;96059.97;;;17.08;52.92
75438;BME280;64015;49.392;15.582;2023-05-07T09:24:48;96064.06;;;17.28;55.77
75438;BME280;64015;49.392;15.582;2023-05-07T09:27:14;96061.56;;;17.09;52.59
75438;BME280;64015;49.392;15.582;2023-05-07T09:29:40;96062.13;;;16.84;52.82
75438;BME280;64015;49.392;15.582;2023-05-07T09:32:06;96049.09;;;16.55;54.42
75438;BME280;64015;49.392;15.582;2023-05-07T09:34:32;96055.50;;;16.40;54.29
75438;BME280;64015;49.392;15.582;2023-05-07T09:37:05;96050.22;;;16.68;53.76
75438;BME280;64015;49.392;15.582;2023-05-07T09:39:44;96047.94;;;16.48;53.42
75438;BME280;64015;49.392;15.582;2023-05-07T09:42:11;96065.28;;;16.59;55.25
75438;BME280;64015;49.392;15.582;2023-05-07T09:44:50;96047.66;;;16.63;54.12
75438;BME280;64015;49.392;15.582;2023-05-07T09:47:22;96053.16;;;16.39;55.05
75438;BME280;64015;49.392;15.582;2023-05-07T09:49:49;96058.75;;;16.51;54.92
75438;BME280;64015;49.392;15.582;2023-05-07T09:52:16;96056.09;;;16.51;55.11
75438;BME280;64015;49.392;15.582;2023-05-07T09:54:43;96069.94;;;16.12;53.05
75438;BME280;64015;49.392;15.582;2023-05-07T09:57:13;96050.28;;;16.35;54.93
75438;BME280;64015;49.392;15.582;2023-05-07T09:59:43;96061.03;;;16.85;53.18
75438;BME280;64015;49.392;15.582;2023-05-07T10:02:09;96048.19;;;16.87;50.55
75438;BME280;64015;49.392;15.582;2023-05-07T10:04:35;96052.28;;;16.30;53.65
75438;BME280;64015;49.392;15.582;2023-05-07T10:07:08;96056.50;;;16.45;54.38
75438;BME280;64015;49.392;15.582;2023-05-07T10:09:34;96046.94;;;16.71;52.21
75438;BME280;64015;49.392;15.582;2023-05-07T10:12:07;96073.22;;;17.00;51.29
75438;BME280;64015;49.392;15.582;2023-05-07T10:14:43;96065.50;;;16.76;52.22
75438;BME280;64015;49.392;15.582;2023-05-07T10:17:11;96050.97;;;16.82;53.64
75438;BME280;64015;49.392;15.582;2023-05-07T10:19:40;96055.31;;;16.78;54.06
75438;BME280;64015;49.392;15.582;2023-05-07T10:22:21;96052.19;;;16.76;54.07
75438;BME280;64015;49.392;15.582;2023-05-07T10:24:48;96057.88;;;16.83;54.84
75438;BME280;64015;49.392;15.582;2023-05-07T10:27:18;96059.22;;;17.30;53.01
75438;BME280;64015;49.392;15.582;2023-05-07T10:30:00;96058.47;;;17.16;51.53
75438;BME280;64015;49.392;15.582;2023-05-07T10:32:53;96044.97;;;17.12;52.48
75438;BME280;64015;49.392;15.582;2023-05-07T10:35:23;96036.19;;;17.34;53.35
75438;BME280;64015;49.392;15.582;2023-05-07T10:37:58;96038.06;;;17.11;49.31
75438;BME280;64015;49.392;15.582;2023-05-07T10:40:38;96047.94;;;17.11;49.61
75438;BME280;64015;49.392;15.582;2023-05-07T10:43:08;96043.69;;;16.74;51.11
75438;BME280;64015;49.392;15.582;2023-05-07T10:45:34;96036.59;;;16.15;53.67
75438;BME280;64015;49.392;15.582;2023-05-07T10:48:29;96047.94;;;16.34;53.17
75438;BME280;64015;49.392;15.582;2023-05-07T10:51:26;96050.47;;;16.80;53.13
75438;BME280;64015;49.392;15.582;2023-05-07T10:56:41;96044.97;;;17.35;51.84
75438;BME280;64015;49.392;15.582;2023-05-07T11:02:07;96038.50;;;18.42;48.43
75438;BME280;64015;49.392;15.582;2023-05-07T11:04:35;96035.53;;;18.04;46.79
75438;BME280;64015;49.392;15.582;2023-05-07T11:09:54;96048.06;;;19.69;46.85
75438;BME280;64015;49.392;15.582;2023-05-07T11:15:43;96036.81;;;21.40;40.51
75438;BME280;64015;49.392;15.582;2023-05-07T11:18:11;96032.75;;;20.92;42.39
75438;BME280;64015;49.392;15.582;2023-05-07T11:20:56;96031.84;;;19.39;44.50
75438;BME280;64015;49.392;15.582;2023-05-07T11:29:26;96039.50;;;21.19;41.19
75438;BME280;64015;49.392;15.582;2023-05-07T11:31:57;96034.25;;;19.50;43.03
75438;BME280;64015;49.392;15.582;2023-05-07T11:34:31;96041.63;;;20.84;43.32
75438;BME280;64015;49.392;15.582;2023-05-07T11:37:00;96048.16;;;19.98;44.14
75438;BME280;64015;49.392;15.582;2023-05-07T11:42:42;96054.06;;;19.31;47.09
75438;BME280;64015;49.392;15.582;2023-05-07T11:45:09;96058.47;;;19.45;46.23
75438;BME280;64015;49.392;15.582;2023-05-07T11:47:34;96049.13;;;20.32;44.79
75438;BME280;64015;49.392;15.582;2023-05-07T11:50:06;96057.53;;;21.10;43.21
75438;BME280;64015;49.392;15.582;2023-05-07T11:52:51;96051.31;;;22.86;38.53
75438;BME280;64015;49.392;15.582;2023-05-07T11:55:21;96041.97;;;23.92;35.68
75438;BME280;64015;49.392;15.582;2023-05-07T11:57:50;96047.13;;;22.28;38.71
75438;BME280;64015;49.392;15.582;2023-05-07T12:00:16;96042.19;;;21.73;40.45
75438;BME280;64015;49.392;15.582;2023-05-07T12:03:08;96057.88;;;22.52;38.87
75438;BME280;64015;49.392;15.582;2023-05-07T12:05:47;96054.88;;;23.02;38.09
75438;BME280;64015;49.392;15.582;2023-05-07T12:08:22;96052.97;;;22.66;37.32
75438;BME280;64015;49.392;15.582;2023-05-07T12:11:00;96059.56;;;21.87;38.07
75438;BME280;64015;49.392;15.582;2023-05-07T12:13:29;96060.47;;;21.17;40.53
75438;BME280;64015;49.392;15.582;2023-05-07T12:16:05;96069.28;;;21.26;40.74
75438;BME280;64015;49.392;15.582;2023-05-07T12:18:31;96058.59;;;20.38;42.25
75438;BME280;64015;49.392;15.582;2023-05-07T12:20:57;96054.19;;;19.78;43.58
75438;BME280;64015;49.392;15.582;2023-05-07T12:23:23;96060.97;;;19.41;43.01
75438;BME280;64015;49.392;15.582;2023-05-07T12:26:02;96067.31;;;18.14;45.96
75438;BME280;64015;49.392;15.582;2023-05-07T12:28:35;96070.84;;;18.32;47.97
75438;BME280;64015;49.392;15.582;2023-05-07T12:31:02;96064.34;;;18.64;46.05
75438;BME280;64015;49.392;15.582;2023-05-07T12:33:35;96055.72;;;18.67;45.99
75438;BME280;64015;49.392;15.582;2023-05-07T12:36:06;96058.13;;;19.20;44.56
75438;BME280;64015;49.392;15.582;2023-05-07T12:38:35;96062.03;;;18.32;45.67
75438;BME280;64015;49.392;15.582;2023-05-07T12:41:08;96062.34;;;18.30;46.56
75438;BME280;64015;49.392;15.582;2023-05-07T12:43:39;96059.72;;;19.56;44.78
75438;BME280;64015;49.392;15.582;2023-05-07T12:46:09;96058.56;;;20.97;41.00
75438;BME280;64015;49.392;15.582;2023-05-07T12:48:38;96051.97;;;23.91;35.18
75438;BME280;64015;49.392;15.582;2023-05-07T12:51:05;96052.88;;;23.27;33.98
75438;BME280;64015;49.392;15.582;2023-05-07T12:53:56;96043.41;;;24.80;32.98
75438;BME280;64015;49.392;15.582;2023-05-07T12:56:31;96052.88;;;26.01;31.33
75438;BME280;64015;49.392;15.582;2023-05-07T12:58:59;96040.59;;;25.85;29.86
75438;BME280;64015;49.392;15.582;2023-05-07T13:01:46;96034.97;;;27.15;30.20
75438;BME280;64015;49.392;15.582;2023-05-07T13:04:17;96041.41;;;27.06;28.59
75438;BME280;64015;49.392;15.582;2023-05-07T13:06:43;96040.13;;;27.90;28.00
75438;BME280;64015;49.392;15.582;2023-05-07T13:09:14;96048.56;;;26.43;28.64
75438;BME280;64015;49.392;15.582;2023-05-07T13:11:40;96055.53;;;24.39;33.41
75438;BME280;64015;49.392;15.582;2023-05-07T13:14:24;96036.56;;;24.51;33.53
75438;BME280;64015;49.392;15.582;2023-05-07T13:16:52;96061.72;;;23.52;35.66
75438;BME280;64015;49.392;15.582;2023-05-07T13:19:20;96042.66;;;25.53;32.41
75438;BME280;64015;49.392;15.582;2023-05-07T13:21:58;96054.53;;;25.68;32.38
75438;BME280;64015;49.392;15.582;2023-05-07T13:24:24;96055.09;;;25.03;32.76
75438;BME280;64015;49.392;15.582;2023-05-07T13:26:56;96048.59;;;24.88;33.20
75438;BME280;64015;49.392;15.582;2023-05-07T13:29:25;96054.00;;;26.23;31.75
75438;BME280;64015;49.392;15.582;2023-05-07T13:32:01;96044.56;;;24.47;34.48